TimeEST,TemperatureF,Dew PointF,Humidity,Sea Level PressureIn,VisibilityMPH,Wind Direction,Wind SpeedMPH,Gust SpeedMPH,PrecipitationIn,Events,Conditions,WindDirDegrees,DateUTC
12:54 AM,46.0,41.0,83,29.74,10.0,SW,8.1,-,N/A,,Clear,230,2013-02-28 05:54:00
1:54 AM,46.0,39.9,79,29.73,10.0,SW,9.2,-,N/A,,Clear,230,2013-02-28 06:54:00
2:54 AM,46.0,39.9,79,29.72,10.0,WSW,9.2,-,N/A,,Clear,240,2013-02-28 07:54:00
3:54 AM,45.0,39.0,80,29.72,10.0,WSW,10.4,-,N/A,,Clear,240,2013-02-28 08:54:00
4:54 AM,46.9,39.0,74,29.73,10.0,West,13.8,-,N/A,,Clear,260,2013-02-28 09:54:00
5:54 AM,46.0,39.0,76,29.74,10.0,West,12.7,-,N/A,,Clear,260,2013-02-28 10:54:00
6:54 AM,44.1,37.9,79,29.75,10.0,West,9.2,-,N/A,,Clear,260,2013-02-28 11:54:00
7:54 AM,46.9,39.0,74,29.76,10.0,West,10.4,-,N/A,,Scattered Clouds,270,2013-02-28 12:54:00
8:54 AM,50.0,39.9,68,29.77,10.0,West,9.2,-,N/A,,Scattered Clouds,270,2013-02-28 13:54:00
9:54 AM,53.1,37.0,55,29.76,10.0,WNW,11.5,-,N/A,,Scattered Clouds,300,2013-02-28 14:54:00
10:54 AM,55.0,33.1,43,29.75,10.0,West,11.5,16.1,N/A,,Scattered Clouds,270,2013-02-28 15:54:00
11:54 AM,55.9,35.1,45,29.73,10.0,WNW,8.1,-,N/A,,Mostly Cloudy,300,2013-02-28 16:54:00
12:54 PM,54.0,33.1,45,29.71,10.0,WNW,10.4,-,N/A,,Partly Cloudy,300,2013-02-28 17:54:00
1:54 PM,53.1,34.0,48,29.72,10.0,NW,12.7,-,N/A,,Overcast,310,2013-02-28 18:54:00
2:54 PM,53.1,32.0,45,29.71,10.0,NW,10.4,-,N/A,,Mostly Cloudy,320,2013-02-28 19:54:00
3:54 PM,51.8,30.2,44,-9999,10.0,NW,11.5,18.4,N/A,,Mostly Cloudy,310,2013-02-28 20:54:00
4:54 PM,51.1,30.0,44,29.74,10.0,West,15.0,-,N/A,,Overcast,280,2013-02-28 21:54:00
5:54 PM,50.0,32.0,50,29.76,10.0,WNW,10.4,-,N/A,,Mostly Cloudy,290,2013-02-28 22:54:00
6:54 PM,48.9,30.9,50,29.79,10.0,WNW,9.2,-,N/A,,Mostly Cloudy,290,2013-02-28 23:54:00
7:54 PM,46.9,30.9,54,29.81,10.0,West,9.2,-,N/A,,Clear,270,2013-03-01 00:54:00
8:54 PM,44.1,30.9,60,29.82,10.0,West,6.9,-,N/A,,Clear,270,2013-03-01 01:54:00
9:54 PM,39.9,30.9,70,29.83,10.0,West,6.9,-,N/A,,Clear,260,2013-03-01 02:54:00
10:54 PM,37.9,30.0,73,29.83,10.0,WSW,8.1,-,N/A,,Clear,250,2013-03-01 03:54:00
11:54 PM,41.0,28.9,62,29.83,10.0,West,8.1,-,N/A,,Clear,270,2013-03-01 04:54:00